Terminal Aerodrome Forecast
Issued by NWS Newport/Morehead City, NC

Home | Current Version | Previous Version | Text Only | Print | Product List | Glossary Off
Versions: 1 2 3 4 5 6 7 8 9 10 11 12 13 14 15

000
FTUS42 KMHX 281120
TAFEWN
TAF
KEWN 281120Z 2812/0112 04012KT P6SM SKC
     FM281600 03010G15KT P6SM SCT150
     FM010300 09007KT P6SM BKN060=

USA.gov is the U.S. government's official web portal to all federal, state and local government web resources and services.